Whitefish Bay: Past 24 Hour Conditions

 

North Bay Airport

07:00 PM EDT 02 September 2014
This table is a summary of hourly weather conditions for the past 24 hours.
Date / Time
(EDT)
Wind(knots) Conditions Visibility(km) Pressure(kPa) Air tempC) Relative humidity(%) Dew pointC) Humidex
02 September 2014
19:00 NNW 6 Thunderstorm with light rainshowers 16 100.8 18 92 17 *
18:00 SW 8 Mostly Cloudy 24 100.7 21 69 15 25
17:00 WSW 8 Mostly Cloudy 24 100.7 22 64 15 25
16:00 SW 11 Mostly Cloudy 24 100.7 22 65 15 25
15:00 SW 9 Mostly Cloudy 24 100.8 23 62 15 27
14:00 W 10 gust 17 Mostly Cloudy 24 100.8 21 68 15 25
13:00 SW 11 gust 18 Mostly Cloudy 32 100.9 20 73 15 *
12:00 WSW 9 Mostly Cloudy 32 100.9 20 74 15 *
11:00 WSW 9 gust 15 Partly Cloudy 24 100.9 20 76 15 *
10:00 W 10 Mostly Cloudy 24 100.9 19 85 16 *
9:00 W 10 gust 17 Mostly Cloudy 16 100.9 18 88 16 *
8:00 SW 10 Mostly Cloudy 16 100.8 18 96 17 *
7:00 WSW 9 gust 15 Cloudy 16 100.8 18 96 17 *
6:00 WSW 6 Cloudy 16 100.7 18 97 17 *
5:00 WSW 6 Cloudy 16 100.6 18 96 18 *
4:00 W 6 Cloudy 16 100.6 18 96 18 *
3:00 WSW 12 gust 19 Mist 8 100.6 19 97 18 *
2:00 WSW 12 gust 18 Cloudy 16 100.7 19 96 18 *
1:00 SW 10 gust 17 Cloudy 15 100.7 19 96 19 *
0:00 SW 14 gust 19 Cloudy 16 100.6 20 95 19 *
01 September 2014
23:00 WSW 15 gust 23 Cloudy 15 100.6 21 93 20 28
22:00 SSW 12 gust 19 Light Rainshower 8 100.6 21 96 21 29
21:00 SSE 11 gust 18 Light Rainshower 16 100.6 22 92 20 29
20:00 SSE 11 gust 18 Mostly Cloudy 32 100.6 22 82 19 29
19:00 SSE 9 Mostly Cloudy 32 100.7 23 78 19 30
 
Map of Great Lakes - Lake Erie and Lake Ontario marine weather areas Egbert N Huron - 45003 W Erie - 45005 S Huron - 45008 Lake Ontario - 45012 Port Stanley - 45132 Prince Edward Point - 45135 Georgian Bay - 45137 Grimsby - 45139 Port Colborne - 45142 South Georgian Bay - 45143 Lake St Clair - 45147 South Lake Huron - 45149 Lake Simcoe - 45151 Lake Nipissing - 45152 North Channel - 45154 Ajax - 45159 Sault Ste. Marie Airport Greater Sudbury Airport North Bay Airport Gore Bay-Manitoulin Airport Great Duck Island Brockville Grenadier Island Kemptville Kingston Airport Collingwood Lagoon City Muskoka Airport Parry Sound Harbour Lake Simcoe Regional Airport Wiarton Airport Goderich Sarnia Chris Hadfield Airport Tobermory Harrow AAFC Port Weller St. Catharines Airport Southeast Shoal Vineland Station Welland-Pelham Windsor Airport Burlington Lift Bridge Cobourg Hamilton Munro Int'l Airport Oshawa Municipal Airport Point Petre Toronto City Centre Airport Toronto Pearson Int'l Airport CFB Trenton Peterborough Municipal Airport Killarney Western Islands CFB Borden Cove Island Long Point Port Colborne Erieau Point Pelee Toronto Buttonville Municipal Airport
Legend: buoyBuoy land stationLand Station » US Marine Weather